sensor_id;sensor_type;location;lat;lon;timestamp;P1;durP1;ratioP1;P2;durP2;ratioP2
15931;SDS011;8065;49.520;11.284;2023-12-07T00:00:00;22.23;;;15.73;;
15931;SDS011;8065;49.520;11.284;2023-12-07T00:02:30;20.70;;;14.97;;
15931;SDS011;8065;49.520;11.284;2023-12-07T00:04:59;22.57;;;15.90;;
15931;SDS011;8065;49.520;11.284;2023-12-07T00:07:27;21.70;;;16.17;;
15931;SDS011;8065;49.520;11.284;2023-12-07T00:09:55;21.40;;;15.50;;
15931;SDS011;8065;49.520;11.284;2023-12-07T00:12:23;23.50;;;16.50;;
15931;SDS011;8065;49.520;11.284;2023-12-07T00:14:52;23.33;;;17.10;;
15931;SDS011;8065;49.520;11.284;2023-12-07T00:17:20;28.00;;;19.13;;
15931;SDS011;8065;49.520;11.284;2023-12-07T00:19:52;29.90;;;19.20;;
15931;SDS011;8065;49.520;11.284;2023-12-07T00:22:20;26.33;;;17.97;;
15931;SDS011;8065;49.520;11.284;2023-12-07T00:24:49;24.83;;;17.40;;
15931;SDS011;8065;49.520;11.284;2023-12-07T00:27:17;25.20;;;18.33;;
15931;SDS011;8065;49.520;11.284;2023-12-07T00:29:46;26.50;;;17.80;;
15931;SDS011;8065;49.520;11.284;2023-12-07T00:32:14;26.90;;;18.80;;
15931;SDS011;8065;49.520;11.284;2023-12-07T00:34:42;26.93;;;18.13;;
15931;SDS011;8065;49.520;11.284;2023-12-07T00:37:13;24.03;;;16.80;;
15931;SDS011;8065;49.520;11.284;2023-12-07T00:39:42;22.23;;;16.47;;
15931;SDS011;8065;49.520;11.284;2023-12-07T00:42:10;22.80;;;16.30;;
15931;SDS011;8065;49.520;11.284;2023-12-07T00:44:39;23.40;;;16.27;;
15931;SDS011;8065;49.520;11.284;2023-12-07T00:47:07;21.20;;;15.90;;
15931;SDS011;8065;49.520;11.284;2023-12-07T00:49:37;22.10;;;14.97;;
15931;SDS011;8065;49.520;11.284;2023-12-07T00:52:05;25.23;;;17.17;;
15931;SDS011;8065;49.520;11.284;2023-12-07T00:54:36;24.07;;;16.50;;
15931;SDS011;8065;49.520;11.284;2023-12-07T00:57:05;24.50;;;16.93;;
15931;SDS011;8065;49.520;11.284;2023-12-07T00:59:33;24.10;;;16.77;;
15931;SDS011;8065;49.520;11.284;2023-12-07T01:02:02;27.07;;;17.60;;
15931;SDS011;8065;49.520;11.284;2023-12-07T01:04:31;24.53;;;16.53;;
15931;SDS011;8065;49.520;11.284;2023-12-07T01:06:59;22.80;;;16.77;;
15931;SDS011;8065;49.520;11.284;2023-12-07T01:09:28;23.17;;;16.67;;
15931;SDS011;8065;49.520;11.284;2023-12-07T01:11:59;23.90;;;16.73;;
15931;SDS011;8065;49.520;11.284;2023-12-07T01:14:28;23.30;;;16.90;;
15931;SDS011;8065;49.520;11.284;2023-12-07T01:16:57;23.03;;;16.47;;
15931;SDS011;8065;49.520;11.284;2023-12-07T01:19:25;22.53;;;15.83;;
15931;SDS011;8065;49.520;11.284;2023-12-07T01:21:54;23.37;;;16.77;;
15931;SDS011;8065;49.520;11.284;2023-12-07T01:24:22;23.33;;;16.07;;
15931;SDS011;8065;49.520;11.284;2023-12-07T01:26:50;20.87;;;15.73;;
15931;SDS011;8065;49.520;11.284;2023-12-07T01:29:21;21.87;;;15.40;;
15931;SDS011;8065;49.520;11.284;2023-12-07T01:31:49;22.50;;;15.70;;
15931;SDS011;8065;49.520;11.284;2023-12-07T01:34:17;22.03;;;15.93;;
15931;SDS011;8065;49.520;11.284;2023-12-07T01:36:46;23.00;;;16.03;;
15931;SDS011;8065;49.520;11.284;2023-12-07T01:39:14;21.03;;;15.80;;
15931;SDS011;8065;49.520;11.284;2023-12-07T01:41:43;22.47;;;16.70;;
15931;SDS011;8065;49.520;11.284;2023-12-07T01:44:11;22.00;;;15.50;;
15931;SDS011;8065;49.520;11.284;2023-12-07T01:46:42;23.80;;;16.37;;
15931;SDS011;8065;49.520;11.284;2023-12-07T01:49:11;21.60;;;15.57;;
15931;SDS011;8065;49.520;11.284;2023-12-07T01:51:39;22.80;;;16.53;;
15931;SDS011;8065;49.520;11.284;2023-12-07T01:54:08;22.70;;;16.20;;
15931;SDS011;8065;49.520;11.284;2023-12-07T01:56:36;24.00;;;16.23;;
15931;SDS011;8065;49.520;11.284;2023-12-07T01:59:05;21.73;;;15.37;;
15931;SDS011;8065;49.520;11.284;2023-12-07T02:01:34;22.27;;;15.53;;
15931;SDS011;8065;49.520;11.284;2023-12-07T02:04:05;22.13;;;15.87;;
15931;SDS011;8065;49.520;11.284;2023-12-07T02:06:33;23.60;;;16.33;;
15931;SDS011;8065;49.520;11.284;2023-12-07T02:09:01;23.37;;;16.47;;
15931;SDS011;8065;49.520;11.284;2023-12-07T02:11:30;24.00;;;17.00;;
15931;SDS011;8065;49.520;11.284;2023-12-07T02:13:59;24.00;;;16.47;;
15931;SDS011;8065;49.520;11.284;2023-12-07T02:16:29;26.30;;;16.60;;
15931;SDS011;8065;49.520;11.284;2023-12-07T02:19:08;23.83;;;15.97;;
15931;SDS011;8065;49.520;11.284;2023-12-07T02:21:49;22.17;;;16.20;;
15931;SDS011;8065;49.520;11.284;2023-12-07T02:24:24;21.07;;;15.90;;
15931;SDS011;8065;49.520;11.284;2023-12-07T02:26:58;24.27;;;17.10;;
15931;SDS011;8065;49.520;11.284;2023-12-07T02:29:26;22.00;;;16.63;;
15931;SDS011;8065;49.520;11.284;2023-12-07T02:31:54;22.40;;;16.67;;
15931;SDS011;8065;49.520;11.284;2023-12-07T02:34:23;22.97;;;16.33;;
15931;SDS011;8065;49.520;11.284;2023-12-07T02:36:51;21.00;;;14.73;;
15931;SDS011;8065;49.520;11.284;2023-12-07T02:39:24;24.90;;;16.53;;
15931;SDS011;8065;49.520;11.284;2023-12-07T02:41:53;23.93;;;16.47;;
15931;SDS011;8065;49.520;11.284;2023-12-07T02:44:25;23.97;;;16.07;;
15931;SDS011;8065;49.520;11.284;2023-12-07T02:46:54;22.40;;;16.80;;
15931;SDS011;8065;49.520;11.284;2023-12-07T02:49:22;23.67;;;16.77;;
15931;SDS011;8065;49.520;11.284;2023-12-07T02:51:51;24.43;;;16.77;;
15931;SDS011;8065;49.520;11.284;2023-12-07T02:54:19;25.07;;;16.53;;
15931;SDS011;8065;49.520;11.284;2023-12-07T02:56:48;25.07;;;17.67;;
15931;SDS011;8065;49.520;11.284;2023-12-07T02:59:16;25.63;;;17.07;;
15931;SDS011;8065;49.520;11.284;2023-12-07T03:01:47;22.33;;;15.77;;
15931;SDS011;8065;49.520;11.284;2023-12-07T03:04:15;23.00;;;16.47;;
15931;SDS011;8065;49.520;11.284;2023-12-07T03:06:43;23.67;;;16.40;;
15931;SDS011;8065;49.520;11.284;2023-12-07T03:09:12;24.40;;;16.40;;
15931;SDS011;8065;49.520;11.284;2023-12-07T03:11:40;24.33;;;16.53;;
15931;SDS011;8065;49.520;11.284;2023-12-07T03:14:08;24.63;;;16.97;;
15931;SDS011;8065;49.520;11.284;2023-12-07T03:16:36;24.77;;;17.20;;
15931;SDS011;8065;49.520;11.284;2023-12-07T03:19:08;23.60;;;16.73;;
15931;SDS011;8065;49.520;11.284;2023-12-07T03:21:38;22.10;;;16.13;;
15931;SDS011;8065;49.520;11.284;2023-12-07T03:24:07;24.20;;;15.87;;
15931;SDS011;8065;49.520;11.284;2023-12-07T03:26:35;23.00;;;15.77;;
15931;SDS011;8065;49.520;11.284;2023-12-07T03:29:04;23.13;;;16.87;;
15931;SDS011;8065;49.520;11.284;2023-12-07T03:31:32;22.77;;;16.07;;
15931;SDS011;8065;49.520;11.284;2023-12-07T03:34:01;21.70;;;15.57;;
15931;SDS011;8065;49.520;11.284;2023-12-07T03:36:33;22.33;;;15.63;;
15931;SDS011;8065;49.520;11.284;2023-12-07T03:39:01;23.93;;;16.03;;
15931;SDS011;8065;49.520;11.284;2023-12-07T03:41:30;22.10;;;15.33;;
15931;SDS011;8065;49.520;11.284;2023-12-07T03:43:58;21.13;;;14.13;;
15931;SDS011;8065;49.520;11.284;2023-12-07T03:46:26;23.03;;;15.10;;
15931;SDS011;8065;49.520;11.284;2023-12-07T03:48:54;22.63;;;15.60;;
15931;SDS011;8065;49.520;11.284;2023-12-07T03:51:23;24.43;;;16.60;;
15931;SDS011;8065;49.520;11.284;2023-12-07T03:53:54;23.40;;;16.00;;
15931;SDS011;8065;49.520;11.284;2023-12-07T03:56:22;25.33;;;16.43;;
15931;SDS011;8065;49.520;11.284;2023-12-07T03:58:51;24.43;;;16.47;;
15931;SDS011;8065;49.520;11.284;2023-12-07T04:01:21;22.73;;;15.57;;
15931;SDS011;8065;49.520;11.284;2023-12-07T04:03:50;24.67;;;16.37;;
15931;SDS011;8065;49.520;11.284;2023-12-07T04:06:19;25.07;;;16.53;;
15931;SDS011;8065;49.520;11.284;2023-12-07T04:08:48;23.77;;;17.33;;
15931;SDS011;8065;49.520;11.284;2023-12-07T04:11:19;23.47;;;17.17;;
15931;SDS011;8065;49.520;11.284;2023-12-07T04:13:47;23.13;;;16.57;;
15931;SDS011;8065;49.520;11.284;2023-12-07T04:16:16;24.83;;;17.37;;
15931;SDS011;8065;49.520;11.284;2023-12-07T04:18:44;24.50;;;17.30;;
15931;SDS011;8065;49.520;11.284;2023-12-07T04:21:12;23.33;;;15.87;;
15931;SDS011;8065;49.520;11.284;2023-12-07T04:23:40;23.50;;;15.57;;
15931;SDS011;8065;49.520;11.284;2023-12-07T04:26:09;24.57;;;16.57;;
15931;SDS011;8065;49.520;11.284;2023-12-07T04:28:40;24.93;;;15.70;;
15931;SDS011;8065;49.520;11.284;2023-12-07T04:31:08;21.40;;;14.80;;
15931;SDS011;8065;49.520;11.284;2023-12-07T04:33:36;22.00;;;15.73;;
15931;SDS011;8065;49.520;11.284;2023-12-07T04:36:05;22.37;;;16.10;;
15931;SDS011;8065;49.520;11.284;2023-12-07T04:38:34;25.57;;;17.27;;
15931;SDS011;8065;49.520;11.284;2023-12-07T04:41:02;22.57;;;15.43;;
15931;SDS011;8065;49.520;11.284;2023-12-07T04:43:31;24.03;;;16.27;;
15931;SDS011;8065;49.520;11.284;2023-12-07T04:46:02;25.17;;;16.47;;
15931;SDS011;8065;49.520;11.284;2023-12-07T04:48:31;23.00;;;16.80;;
15931;SDS011;8065;49.520;11.284;2023-12-07T04:50:59;22.80;;;16.10;;
15931;SDS011;8065;49.520;11.284;2023-12-07T04:53:27;22.83;;;15.57;;
15931;SDS011;8065;49.520;11.284;2023-12-07T04:55:56;23.03;;;16.17;;
15931;SDS011;8065;49.520;11.284;2023-12-07T04:58:24;23.83;;;16.37;;
15931;SDS011;8065;49.520;11.284;2023-12-07T05:00:52;23.80;;;16.40;;
15931;SDS011;8065;49.520;11.284;2023-12-07T05:03:23;21.27;;;15.30;;
15931;SDS011;8065;49.520;11.284;2023-12-07T05:05:52;22.70;;;15.53;;
15931;SDS011;8065;49.520;11.284;2023-12-07T05:08:20;23.27;;;16.40;;
15931;SDS011;8065;49.520;11.284;2023-12-07T05:10:48;37.33;;;27.63;;
15931;SDS011;8065;49.520;11.284;2023-12-07T05:13:16;27.43;;;21.43;;
15931;SDS011;8065;49.520;11.284;2023-12-07T05:15:45;27.50;;;19.40;;
15931;SDS011;8065;49.520;11.284;2023-12-07T05:18:14;26.83;;;18.60;;
15931;SDS011;8065;49.520;11.284;2023-12-07T05:20:45;24.20;;;16.97;;
15931;SDS011;8065;49.520;11.284;2023-12-07T05:23:13;21.43;;;16.40;;
15931;SDS011;8065;49.520;11.284;2023-12-07T05:25:42;23.27;;;15.83;;
15931;SDS011;8065;49.520;11.284;2023-12-07T05:28:10;23.97;;;16.50;;
15931;SDS011;8065;49.520;11.284;2023-12-07T05:30:39;24.13;;;15.07;;
15931;SDS011;8065;49.520;11.284;2023-12-07T05:33:07;23.63;;;15.80;;
15931;SDS011;8065;49.520;11.284;2023-12-07T05:35:35;21.10;;;14.80;;
15931;SDS011;8065;49.520;11.284;2023-12-07T05:38:06;22.47;;;15.40;;
15931;SDS011;8065;49.520;11.284;2023-12-07T05:40:34;21.20;;;15.17;;
15931;SDS011;8065;49.520;11.284;2023-12-07T05:43:03;23.20;;;15.27;;
15931;SDS011;8065;49.520;11.284;2023-12-07T05:45:31;23.20;;;16.83;;
15931;SDS011;8065;49.520;11.284;2023-12-07T05:47:59;23.10;;;16.10;;
15931;SDS011;8065;49.520;11.284;2023-12-07T05:50:27;23.77;;;16.30;;
15931;SDS011;8065;49.520;11.284;2023-12-07T05:52:56;23.33;;;15.83;;
15931;SDS011;8065;49.520;11.284;2023-12-07T05:55:27;21.37;;;15.13;;
15931;SDS011;8065;49.520;11.284;2023-12-07T05:57:55;22.70;;;15.37;;
15931;SDS011;8065;49.520;11.284;2023-12-07T06:00:23;21.43;;;15.93;;
15931;SDS011;8065;49.520;11.284;2023-12-07T06:02:52;22.70;;;15.83;;
15931;SDS011;8065;49.520;11.284;2023-12-07T06:05:20;25.60;;;15.97;;
15931;SDS011;8065;49.520;11.284;2023-12-07T06:07:49;22.20;;;15.87;;
15931;SDS011;8065;49.520;11.284;2023-12-07T06:10:19;22.20;;;15.63;;
15931;SDS011;8065;49.520;11.284;2023-12-07T06:12:50;23.13;;;15.87;;
15931;SDS011;8065;49.520;11.284;2023-12-07T06:15:20;25.60;;;16.83;;
15931;SDS011;8065;49.520;11.284;2023-12-07T06:17:48;27.23;;;18.10;;
15931;SDS011;8065;49.520;11.284;2023-12-07T06:20:16;33.13;;;20.53;;
15931;SDS011;8065;49.520;11.284;2023-12-07T06:22:45;29.10;;;19.13;;
15931;SDS011;8065;49.520;11.284;2023-12-07T06:25:13;26.20;;;17.50;;
15931;SDS011;8065;49.520;11.284;2023-12-07T06:27:42;22.73;;;16.43;;
15931;SDS011;8065;49.520;11.284;2023-12-07T06:30:13;23.97;;;16.73;;
15931;SDS011;8065;49.520;11.284;2023-12-07T06:32:41;21.10;;;15.57;;
15931;SDS011;8065;49.520;11.284;2023-12-07T06:35:11;22.67;;;16.30;;
15931;SDS011;8065;49.520;11.284;2023-12-07T06:37:41;22.20;;;16.50;;
15931;SDS011;8065;49.520;11.284;2023-12-07T06:40:09;23.33;;;16.87;;
15931;SDS011;8065;49.520;11.284;2023-12-07T06:42:38;23.10;;;16.70;;
15931;SDS011;8065;49.520;11.284;2023-12-07T06:45:07;24.47;;;16.57;;
15931;SDS011;8065;49.520;11.284;2023-12-07T06:47:38;21.93;;;15.47;;
15931;SDS011;8065;49.520;11.284;2023-12-07T06:50:07;22.77;;;15.57;;
15931;SDS011;8065;49.520;11.284;2023-12-07T06:52:36;20.60;;;15.27;;
15931;SDS011;8065;49.520;11.284;2023-12-07T06:55:05;21.67;;;15.40;;
15931;SDS011;8065;49.520;11.284;2023-12-07T06:57:35;21.50;;;15.30;;
15931;SDS011;8065;49.520;11.284;2023-12-07T07:00:04;24.10;;;15.93;;
15931;SDS011;8065;49.520;11.284;2023-12-07T07:02:35;22.73;;;15.27;;
15931;SDS011;8065;49.520;11.284;2023-12-07T07:05:07;25.57;;;16.07;;
15931;SDS011;8065;49.520;11.284;2023-12-07T07:07:36;23.77;;;16.63;;
15931;SDS011;8065;49.520;11.284;2023-12-07T07:10:05;20.47;;;15.57;;
15931;SDS011;8065;49.520;11.284;2023-12-07T07:12:34;22.87;;;15.70;;
15931;SDS011;8065;49.520;11.284;2023-12-07T07:15:03;17.33;;;14.27;;
15931;SDS011;8065;49.520;11.284;2023-12-07T07:17:34;20.20;;;15.20;;
15931;SDS011;8065;49.520;11.284;2023-12-07T07:20:05;22.40;;;14.60;;
15931;SDS011;8065;49.520;11.284;2023-12-07T07:22:34;20.27;;;14.37;;
15931;SDS011;8065;49.520;11.284;2023-12-07T07:25:03;20.80;;;14.40;;
15931;SDS011;8065;49.520;11.284;2023-12-07T07:27:31;18.00;;;13.43;;
15931;SDS011;8065;49.520;11.284;2023-12-07T07:30:00;19.87;;;13.77;;
15931;SDS011;8065;49.520;11.284;2023-12-07T07:32:29;20.20;;;14.33;;
15931;SDS011;8065;49.520;11.284;2023-12-07T07:34:58;20.47;;;14.13;;
15931;SDS011;8065;49.520;11.284;2023-12-07T07:37:28;19.90;;;14.50;;
15931;SDS011;8065;49.520;11.284;2023-12-07T07:39:57;18.17;;;13.47;;
15931;SDS011;8065;49.520;11.284;2023-12-07T07:42:25;19.93;;;15.03;;
15931;SDS011;8065;49.520;11.284;2023-12-07T07:44:54;21.90;;;15.77;;
15931;SDS011;8065;49.520;11.284;2023-12-07T07:47:22;21.07;;;14.63;;
15931;SDS011;8065;49.520;11.284;2023-12-07T07:49:50;19.67;;;13.70;;
15931;SDS011;8065;49.520;11.284;2023-12-07T07:52:18;19.43;;;13.50;;
15931;SDS011;8065;49.520;11.284;2023-12-07T07:54:49;21.07;;;16.33;;
15931;SDS011;8065;49.520;11.284;2023-12-07T07:57:18;24.80;;;18.13;;
15931;SDS011;8065;49.520;11.284;2023-12-07T07:59:46;25.80;;;17.53;;
15931;SDS011;8065;49.520;11.284;2023-12-07T08:02:14;23.60;;;16.47;;
15931;SDS011;8065;49.520;11.284;2023-12-07T08:04:43;25.50;;;18.23;;
15931;SDS011;8065;49.520;11.284;2023-12-07T08:07:11;26.60;;;18.07;;
15931;SDS011;8065;49.520;11.284;2023-12-07T08:09:39;23.97;;;17.20;;
15931;SDS011;8065;49.520;11.284;2023-12-07T08:12:10;23.10;;;15.43;;
15931;SDS011;8065;49.520;11.284;2023-12-07T08:14:38;21.13;;;15.13;;
15931;SDS011;8065;49.520;11.284;2023-12-07T08:17:08;19.97;;;15.10;;
15931;SDS011;8065;49.520;11.284;2023-12-07T08:19:37;25.23;;;19.03;;
15931;SDS011;8065;49.520;11.284;2023-12-07T08:22:05;27.27;;;19.90;;
15931;SDS011;8065;49.520;11.284;2023-12-07T08:24:33;24.13;;;18.17;;
15931;SDS011;8065;49.520;11.284;2023-12-07T08:27:03;21.27;;;16.37;;
15931;SDS011;8065;49.520;11.284;2023-12-07T08:29:34;22.97;;;16.33;;
15931;SDS011;8065;49.520;11.284;2023-12-07T08:32:02;21.87;;;15.40;;
15931;SDS011;8065;49.520;11.284;2023-12-07T08:34:31;25.20;;;17.83;;
15931;SDS011;8065;49.520;11.284;2023-12-07T08:37:00;25.90;;;18.93;;
15931;SDS011;8065;49.520;11.284;2023-12-07T08:39:28;25.17;;;18.43;;
15931;SDS011;8065;49.520;11.284;2023-12-07T08:41:56;26.80;;;18.60;;
15931;SDS011;8065;49.520;11.284;2023-12-07T08:44:26;25.40;;;18.17;;
15931;SDS011;8065;49.520;11.284;2023-12-07T08:46:57;26.20;;;18.73;;
15931;SDS011;8065;49.520;11.284;2023-12-07T08:49:25;28.13;;;18.83;;
15931;SDS011;8065;49.520;11.284;2023-12-07T08:51:53;26.47;;;19.00;;
15931;SDS011;8065;49.520;11.284;2023-12-07T08:54:22;29.27;;;19.60;;
15931;SDS011;8065;49.520;11.284;2023-12-07T08:56:50;29.40;;;18.67;;
15931;SDS011;8065;49.520;11.284;2023-12-07T08:59:19;25.57;;;18.63;;
15931;SDS011;8065;49.520;11.284;2023-12-07T09:01:47;29.77;;;18.87;;
15931;SDS011;8065;49.520;11.284;2023-12-07T09:04:18;30.73;;;19.17;;
15931;SDS011;8065;49.520;11.284;2023-12-07T09:06:46;27.37;;;19.47;;
15931;SDS011;8065;49.520;11.284;2023-12-07T09:09:15;28.83;;;19.67;;
15931;SDS011;8065;49.520;11.284;2023-12-07T09:11:43;28.80;;;19.40;;
15931;SDS011;8065;49.520;11.284;2023-12-07T09:14:11;29.33;;;20.33;;
15931;SDS011;8065;49.520;11.284;2023-12-07T09:16:42;25.17;;;18.87;;
15931;SDS011;8065;49.520;11.284;2023-12-07T09:19:11;28.40;;;18.77;;
15931;SDS011;8065;49.520;11.284;2023-12-07T09:21:42;29.47;;;18.87;;
15931;SDS011;8065;49.520;11.284;2023-12-07T09:24:11;29.83;;;18.90;;
15931;SDS011;8065;49.520;11.284;2023-12-07T09:26:39;28.07;;;19.37;;
15931;SDS011;8065;49.520;11.284;2023-12-07T09:29:08;27.47;;;19.10;;
15931;SDS011;8065;49.520;11.284;2023-12-07T09:31:36;27.13;;;18.87;;
15931;SDS011;8065;49.520;11.284;2023-12-07T09:34:04;27.10;;;18.57;;
15931;SDS011;8065;49.520;11.284;2023-12-07T09:36:33;31.47;;;20.20;;
15931;SDS011;8065;49.520;11.284;2023-12-07T09:39:04;26.90;;;18.13;;
15931;SDS011;8065;49.520;11.284;2023-12-07T09:41:32;26.00;;;18.80;;
15931;SDS011;8065;49.520;11.284;2023-12-07T09:44:01;27.97;;;19.03;;
15931;SDS011;8065;49.520;11.284;2023-12-07T09:46:29;25.93;;;18.57;;
15931;SDS011;8065;49.520;11.284;2023-12-07T09:48:58;26.80;;;19.30;;
15931;SDS011;8065;49.520;11.284;2023-12-07T09:51:26;28.97;;;19.57;;
15931;SDS011;8065;49.520;11.284;2023-12-07T09:53:58;27.57;;;19.27;;
15931;SDS011;8065;49.520;11.284;2023-12-07T09:56:29;26.70;;;19.23;;
15931;SDS011;8065;49.520;11.284;2023-12-07T09:58:57;27.80;;;19.43;;
15931;SDS011;8065;49.520;11.284;2023-12-07T10:01:27;29.17;;;19.30;;
15931;SDS011;8065;49.520;11.284;2023-12-07T10:06:43;27.23;;;19.17;;
15931;SDS011;8065;49.520;11.284;2023-12-07T10:09:12;28.90;;;19.47;;
15931;SDS011;8065;49.520;11.284;2023-12-07T10:11:43;27.43;;;19.30;;
15931;SDS011;8065;49.520;11.284;2023-12-07T10:14:12;26.70;;;18.57;;
15931;SDS011;8065;49.520;11.284;2023-12-07T10:16:51;27.20;;;18.87;;
15931;SDS011;8065;49.520;11.284;2023-12-07T10:19:21;25.40;;;17.60;;
15931;SDS011;8065;49.520;11.284;2023-12-07T10:21:50;24.70;;;17.73;;
15931;SDS011;8065;49.520;11.284;2023-12-07T10:24:20;24.83;;;17.23;;
15931;SDS011;8065;49.520;11.284;2023-12-07T10:26:56;27.17;;;18.67;;
15931;SDS011;8065;49.520;11.284;2023-12-07T10:29:24;28.83;;;18.83;;
15931;SDS011;8065;49.520;11.284;2023-12-07T10:31:59;25.40;;;17.93;;
15931;SDS011;8065;49.520;11.284;2023-12-07T10:34:30;25.57;;;17.93;;
15931;SDS011;8065;49.520;11.284;2023-12-07T10:36:59;25.83;;;18.67;;
15931;SDS011;8065;49.520;11.284;2023-12-07T10:39:29;25.50;;;18.37;;
15931;SDS011;8065;49.520;11.284;2023-12-07T10:42:01;26.00;;;18.17;;
15931;SDS011;8065;49.520;11.284;2023-12-07T10:44:34;27.20;;;19.77;;
15931;SDS011;8065;49.520;11.284;2023-12-07T10:47:06;27.30;;;18.60;;
15931;SDS011;8065;49.520;11.284;2023-12-07T10:49:35;24.83;;;18.60;;
15931;SDS011;8065;49.520;11.284;2023-12-07T10:52:08;26.73;;;19.10;;
15931;SDS011;8065;49.520;11.284;2023-12-07T10:54:43;25.10;;;17.97;;
15931;SDS011;8065;49.520;11.284;2023-12-07T10:57:21;25.47;;;17.50;;
15931;SDS011;8065;49.520;11.284;2023-12-07T10:59:50;26.27;;;18.07;;
15931;SDS011;8065;49.520;11.284;2023-12-07T11:02:22;25.90;;;18.10;;
15931;SDS011;8065;49.520;11.284;2023-12-07T11:04:52;28.43;;;19.53;;
15931;SDS011;8065;49.520;11.284;2023-12-07T11:07:24;29.20;;;19.40;;
15931;SDS011;8065;49.520;11.284;2023-12-07T11:09:57;27.07;;;18.77;;
15931;SDS011;8065;49.520;11.284;2023-12-07T11:12:35;26.27;;;19.30;;
15931;SDS011;8065;49.520;11.284;2023-12-07T11:15:10;28.13;;;19.00;;
15931;SDS011;8065;49.520;11.284;2023-12-07T11:17:52;28.00;;;19.23;;
15931;SDS011;8065;49.520;11.284;2023-12-07T11:20:21;24.60;;;16.07;;
15931;SDS011;8065;49.520;11.284;2023-12-07T11:22:59;21.80;;;15.30;;
15931;SDS011;8065;49.520;11.284;2023-12-07T11:25:27;22.47;;;15.10;;
15931;SDS011;8065;49.520;11.284;2023-12-07T11:28:02;22.97;;;16.17;;
15931;SDS011;8065;49.520;11.284;2023-12-07T11:30:33;22.67;;;16.23;;
15931;SDS011;8065;49.520;11.284;2023-12-07T11:33:03;23.20;;;16.93;;
15931;SDS011;8065;49.520;11.284;2023-12-07T11:35:33;22.93;;;16.17;;
15931;SDS011;8065;49.520;11.284;2023-12-07T11:38:22;22.90;;;15.83;;
15931;SDS011;8065;49.520;11.284;2023-12-07T11:40:50;22.97;;;16.47;;
15931;SDS011;8065;49.520;11.284;2023-12-07T11:43:21;22.30;;;16.30;;
15931;SDS011;8065;49.520;11.284;2023-12-07T11:46:04;23.87;;;16.27;;
15931;SDS011;8065;49.520;11.284;2023-12-07T11:48:34;22.10;;;16.50;;
15931;SDS011;8065;49.520;11.284;2023-12-07T11:51:03;20.63;;;15.70;;
15931;SDS011;8065;49.520;11.284;2023-12-07T11:53:33;20.83;;;14.90;;
15931;SDS011;8065;49.520;11.284;2023-12-07T11:56:03;20.03;;;14.73;;
15931;SDS011;8065;49.520;11.284;2023-12-07T11:58:35;19.10;;;14.90;;
15931;SDS011;8065;49.520;11.284;2023-12-07T12:01:04;20.90;;;14.13;;
15931;SDS011;8065;49.520;11.284;2023-12-07T12:03:33;19.13;;;13.47;;
15931;SDS011;8065;49.520;11.284;2023-12-07T12:06:02;23.43;;;15.77;;
15931;SDS011;8065;49.520;11.284;2023-12-07T12:08:33;19.97;;;15.30;;
15931;SDS011;8065;49.520;11.284;2023-12-07T12:11:01;21.53;;;15.93;;
15931;SDS011;8065;49.520;11.284;2023-12-07T12:13:33;17.07;;;13.37;;
15931;SDS011;8065;49.520;11.284;2023-12-07T12:16:05;16.57;;;12.93;;
15931;SDS011;8065;49.520;11.284;2023-12-07T12:18:34;17.20;;;13.30;;
15931;SDS011;8065;49.520;11.284;2023-12-07T12:21:03;16.93;;;11.97;;
15931;SDS011;8065;49.520;11.284;2023-12-07T12:23:34;15.40;;;11.70;;
15931;SDS011;8065;49.520;11.284;2023-12-07T12:26:03;15.20;;;11.43;;
15931;SDS011;8065;49.520;11.284;2023-12-07T12:28:32;16.93;;;12.30;;
15931;SDS011;8065;49.520;11.284;2023-12-07T12:31:08;13.97;;;11.47;;
15931;SDS011;8065;49.520;11.284;2023-12-07T12:33:38;19.10;;;12.57;;
15931;SDS011;8065;49.520;11.284;2023-12-07T12:36:07;15.47;;;11.93;;
15931;SDS011;8065;49.520;11.284;2023-12-07T12:38:36;17.47;;;12.50;;
15931;SDS011;8065;49.520;11.284;2023-12-07T12:41:04;17.90;;;12.93;;
15931;SDS011;8065;49.520;11.284;2023-12-07T12:43:33;18.40;;;13.43;;
15931;SDS011;8065;49.520;11.284;2023-12-07T12:46:02;16.67;;;13.23;;
15931;SDS011;8065;49.520;11.284;2023-12-07T12:48:33;15.50;;;11.60;;
15931;SDS011;8065;49.520;11.284;2023-12-07T12:51:12;17.90;;;12.37;;
15931;SDS011;8065;49.520;11.284;2023-12-07T12:53:44;14.37;;;11.57;;
15931;SDS011;8065;49.520;11.284;2023-12-07T12:56:13;17.33;;;12.40;;
15931;SDS011;8065;49.520;11.284;2023-12-07T12:58:42;17.33;;;12.10;;
15931;SDS011;8065;49.520;11.284;2023-12-07T13:01:11;15.90;;;12.13;;
15931;SDS011;8065;49.520;11.284;2023-12-07T13:03:43;13.83;;;11.37;;
15931;SDS011;8065;49.520;11.284;2023-12-07T13:06:13;14.10;;;10.80;;
15931;SDS011;8065;49.520;11.284;2023-12-07T13:08:43;12.67;;;9.73;;
15931;SDS011;8065;49.520;11.284;2023-12-07T13:11:14;15.13;;;11.13;;
15931;SDS011;8065;49.520;11.284;2023-12-07T13:13:43;16.67;;;12.13;;
15931;SDS011;8065;49.520;11.284;2023-12-07T13:16:12;16.07;;;12.50;;
15931;SDS011;8065;49.520;11.284;2023-12-07T13:18:40;13.67;;;10.93;;
15931;SDS011;8065;49.520;11.284;2023-12-07T13:21:11;15.33;;;11.43;;
15931;SDS011;8065;49.520;11.284;2023-12-07T13:23:40;15.80;;;11.27;;
15931;SDS011;8065;49.520;11.284;2023-12-07T13:26:11;16.60;;;11.47;;
15931;SDS011;8065;49.520;11.284;2023-12-07T13:28:39;14.63;;;11.77;;
15931;SDS011;8065;49.520;11.284;2023-12-07T13:31:07;16.50;;;12.83;;
15931;SDS011;8065;49.520;11.284;2023-12-07T13:33:35;15.33;;;12.13;;
15931;SDS011;8065;49.520;11.284;2023-12-07T13:36:05;16.40;;;11.77;;
15931;SDS011;8065;49.520;11.284;2023-12-07T13:38:37;14.80;;;11.90;;
15931;SDS011;8065;49.520;11.284;2023-12-07T13:41:05;15.97;;;12.63;;
15931;SDS011;8065;49.520;11.284;2023-12-07T13:43:34;16.73;;;12.70;;
15931;SDS011;8065;49.520;11.284;2023-12-07T13:46:03;17.97;;;12.97;;
15931;SDS011;8065;49.520;11.284;2023-12-07T13:48:32;19.27;;;12.30;;
15931;SDS011;8065;49.520;11.284;2023-12-07T13:51:00;15.90;;;13.13;;
15931;SDS011;8065;49.520;11.284;2023-12-07T13:53:29;16.80;;;13.23;;
15931;SDS011;8065;49.520;11.284;2023-12-07T13:56:01;19.00;;;13.67;;
15931;SDS011;8065;49.520;11.284;2023-12-07T13:58:30;19.33;;;14.23;;
15931;SDS011;8065;49.520;11.284;2023-12-07T14:01:00;18.03;;;13.50;;
15931;SDS011;8065;49.520;11.284;2023-12-07T14:03:28;21.07;;;15.47;;
15931;SDS011;8065;49.520;11.284;2023-12-07T14:05:56;23.23;;;15.27;;
15931;SDS011;8065;49.520;11.284;2023-12-07T14:08:24;19.93;;;14.67;;
15931;SDS011;8065;49.520;11.284;2023-12-07T14:10:56;16.97;;;12.10;;
15931;SDS011;8065;49.520;11.284;2023-12-07T14:13:27;16.40;;;11.93;;
15931;SDS011;8065;49.520;11.284;2023-12-07T14:15:55;17.90;;;11.77;;
15931;SDS011;8065;49.520;11.284;2023-12-07T14:18:23;14.77;;;11.67;;
15931;SDS011;8065;49.520;11.284;2023-12-07T14:20:51;16.30;;;11.10;;
15931;SDS011;8065;49.520;11.284;2023-12-07T14:23:20;14.00;;;11.17;;
15931;SDS011;8065;49.520;11.284;2023-12-07T14:25:48;15.43;;;11.57;;
15931;SDS011;8065;49.520;11.284;2023-12-07T14:28:16;13.70;;;10.87;;
15931;SDS011;8065;49.520;11.284;2023-12-07T14:30:47;13.70;;;10.90;;
15931;SDS011;8065;49.520;11.284;2023-12-07T14:33:21;20.77;;;14.03;;
15931;SDS011;8065;49.520;11.284;2023-12-07T14:35:49;18.53;;;14.27;;